Time;durP1;ratioP1;P1;durP2;ratioP2;P2;SDS_P1;SDS_P2;PMS_P1;PMS_P2;Temp;Humidity;BMP_temperature;BMP_pressure;BME280_temperature;BME280_humidity;BME280_pressure;Samples;Min_cycle;Max_cycle;Signal;HPM_P1;HPM_P2
2022/04/10 00:00:55;;;;;;;11.68;6.17;;;;;;;3.08;72.17;98438.55;1699237;83;21528;-41
2022/04/10 00:03:22;;;;;;;9.60;5.17;;;;;;;3.10;71.18;98437.20;1707391;83;21031;-43
2022/04/10 00:05:49;;;;;;;;;;;;;;;2.98;72.87;98427.66;1708443;83;22114;-43
2022/04/10 00:08:15;;;;;;;11.40;5.58;;;;;;;3.01;72.20;98440.99;1682839;82;20116;-44
2022/04/10 00:10:42;;;;;;;11.45;5.58;;;;;;;2.99;72.86;98438.45;1696221;83;21156;-41
2022/04/10 00:13:08;;;;;;;13.90;6.33;;;;;;;2.93;73.35;98441.29;1688887;84;21560;-44
2022/04/10 00:15:34;;;;;;;15.32;6.60;;;;;;;2.94;72.89;98440.37;1691302;82;21070;-41
2022/04/10 00:18:00;;;;;;;16.30;6.13;;;;;;;2.87;73.65;98437.61;1674836;85;21172;-38
2022/04/10 00:20:26;;;;;;;13.93;5.87;;;;;;;2.91;72.12;98444.83;1679253;83;21063;-41
2022/04/10 00:22:52;;;;;;;18.05;6.45;;;;;;;2.81;73.25;98444.34;1677720;84;20992;-40
2022/04/10 00:25:20;;;;;;;19.32;6.97;;;;;;;2.81;73.00;98441.75;1720904;82;21012;-45
2022/04/10 00:27:46;;;;;;;15.38;6.42;;;;;;;2.80;73.23;98441.34;1707468;82;21535;-43
2022/04/10 00:30:16;;;;;;;13.55;6.05;;;;;;;2.70;73.53;98440.84;1695237;84;21036;-43
2022/04/10 00:32:43;;;;;;;15.68;6.33;;;;;;;2.67;73.39;98439.65;1692064;83;21018;-40
2022/04/10 00:35:10;;;;;;;19.35;6.83;;;;;;;2.61;73.92;98451.11;1694124;82;20991;-44
2022/04/10 00:37:37;;;;;;;15.78;6.78;;;;;;;2.56;73.68;98455.61;1715039;82;21020;-43
2022/04/10 00:40:05;;;;;;;16.55;6.42;;;;;;;2.58;72.90;98460.30;1728288;82;21030;-41
2022/04/10 00:42:37;;;;;;;11.78;5.47;;;;;;;2.55;72.98;98455.23;1725658;82;21046;-43
2022/04/10 00:45:06;;;;;;;14.07;5.72;;;;;;;2.53;73.90;98460.94;1715123;83;21026;-43
2022/04/10 00:47:32;;;;;;;12.58;5.30;;;;;;;2.56;73.20;98463.40;1710151;82;21021;-43
2022/04/10 00:50:00;;;;;;;12.13;5.28;;;;;;;2.54;74.06;98461.31;1709916;82;21687;-45
2022/04/10 00:52:27;;;;;;;;;;;;;;;2.54;73.61;98461.31;1699922;84;20996;-42
2022/04/10 00:54:53;;;;;;;10.50;5.03;;;;;;;2.47;74.20;98460.71;1702534;83;20131;-44
2022/04/10 00:57:20;;;;;;;13.70;5.25;;;;;;;2.52;73.94;98465.72;1695475;83;21019;-44
2022/04/10 00:59:46;;;;;;;13.83;5.67;;;;;;;2.50;74.28;98470.13;1693828;83;21121;-43
2022/04/10 01:02:13;;;;;;;13.93;5.58;;;;;;;2.49;73.45;98472.30;1700961;81;21023;-43
2022/04/10 01:04:40;;;;;;;12.20;5.77;;;;;;;2.50;72.95;98474.02;1698386;82;20981;-44
2022/04/10 01:07:06;;;;;;;12.23;5.00;;;;;;;2.46;74.19;98473.27;1693469;83;21043;-43
2022/04/10 01:09:33;;;;;;;13.05;5.20;;;;;;;2.42;73.77;98473.42;1681371;83;20972;-44
2022/04/10 01:12:00;;;;;;;15.32;5.85;;;;;;;2.43;73.87;98473.83;1697277;83;21010;-43
2022/04/10 01:14:26;;;;;;;12.65;5.20;;;;;;;2.41;74.40;98474.34;1699634;83;21055;-45
2022/04/10 01:16:53;;;;;;;8.90;4.95;;;;;;;2.43;73.79;98472.53;1667072;82;21081;-45
2022/04/10 01:19:20;;;;;;;9.70;5.33;;;;;;;2.45;73.51;98473.33;1680574;83;21531;-46
2022/04/10 01:21:48;;;;;;;15.30;5.72;;;;;;;2.47;73.33;98475.41;1686969;83;21017;-42
2022/04/10 01:24:15;;;;;;;11.88;5.10;;;;;;;2.42;74.13;98478.19;1659872;84;21099;-45
2022/04/10 01:26:42;;;;;;;10.87;5.27;;;;;;;2.46;72.91;98475.88;1692260;83;21021;-45
2022/04/10 01:29:13;;;;;;;14.20;5.58;;;;;;;2.47;72.89;98484.49;1727234;81;21282;-43
2022/04/10 01:31:42;;;;;;;12.68;5.47;;;;;;;2.34;74.43;98481.94;1740618;81;21023;-43
2022/04/10 01:34:13;;;;;;;11.53;5.03;;;;;;;2.35;74.92;98483.62;1702450;82;21016;-43
2022/04/10 01:36:40;;;;;;;9.78;4.97;;;;;;;2.41;73.76;98485.56;1698598;83;20944;-43
2022/04/10 01:39:08;;;;;;;12.25;4.87;;;;;;;2.43;73.53;98488.11;1720314;81;21545;-44
2022/04/10 01:41:36;;;;;;;;;;;;;;;2.44;73.61;98491.11;1706666;83;20992;-43
2022/04/10 01:44:05;;;;;;;10.88;5.05;;;;;;;2.42;73.86;98488.99;1705128;83;20110;-44
2022/04/10 01:46:33;;;;;;;10.40;4.75;;;;;;;2.42;74.40;98492.88;1704905;84;20984;-48
2022/04/10 01:48:59;;;;;;;11.50;5.10;;;;;;;2.43;74.05;98494.59;1696595;84;20977;-47
2022/04/10 01:51:26;;;;;;;11.15;4.80;;;;;;;2.40;74.16;98503.77;1689130;84;20985;-47
2022/04/10 01:53:54;;;;;;;13.43;5.90;;;;;;;2.40;74.05;98507.23;1728291;83;20975;-46
2022/04/10 01:56:21;;;;;;;10.75;4.87;;;;;;;2.37;74.75;98512.52;1739998;82;21003;-46
2022/04/10 01:58:48;;;;;;;13.95;5.20;;;;;;;2.41;73.92;98511.97;1697938;83;21600;-46
2022/04/10 02:01:16;;;;;;;11.22;5.15;;;;;;;2.39;74.09;98512.48;1673578;83;21011;-45
2022/04/10 02:03:43;;;;;;;10.85;4.92;;;;;;;2.37;74.92;98511.69;1699120;83;21044;-47
2022/04/10 02:06:13;;;;;;;9.43;4.95;;;;;;;2.40;73.44;98518.05;1706469;82;21051;-45
2022/04/10 02:08:41;;;;;;;8.55;4.08;;;;;;;2.34;74.70;98519.56;1705572;82;21548;-47
2022/04/10 02:11:18;;;;;;;10.30;4.80;;;;;;;2.39;73.96;98526.75;1701596;83;21047;-47
2022/04/10 02:13:45;;;;;;;10.78;4.72;;;;;;;2.29;75.27;98527.06;1696231;83;21505;-45
2022/04/10 02:16:14;;;;;;;9.68;4.70;;;;;;;2.32;74.21;98527.85;1699517;82;21029;-48
2022/04/10 02:18:40;;;;;;;6.72;3.80;;;;;;;2.30;74.79;98528.73;1691846;83;21081;-47
2022/04/10 02:21:06;;;;;;;9.05;3.60;;;;;;;2.27;75.52;98526.70;1702361;82;20976;-47
2022/04/10 02:23:32;;;;;;;9.13;4.42;;;;;;;2.31;75.05;98536.09;1699383;82;20973;-47
2022/04/10 02:25:58;;;;;;;8.60;3.98;;;;;;;2.35;74.74;98530.32;1705723;82;20985;-47
2022/04/10 02:28:24;;;;;;;6.60;3.30;;;;;;;2.36;74.71;98532.03;1673926;83;21067;-47
2022/04/10 02:30:50;;;;;;;10.05;3.52;;;;;;;2.33;75.39;98539.48;1720393;81;21020;-46
2022/04/10 02:33:15;;;;;;;7.78;4.05;;;;;;;2.26;75.26;98536.23;1718462;82;21003;-45
2022/04/10 02:35:41;;;;;;;8.00;3.72;;;;;;;2.26;75.41;98537.53;1715449;82;20990;-45
2022/04/10 02:38:07;;;;;;;7.10;3.70;;;;;;;2.31;75.11;98537.39;1684976;83;21072;-44
2022/04/10 02:40:33;;;;;;;6.47;3.37;;;;;;;2.28;75.32;98542.67;1709276;84;20967;-47
2022/04/10 02:42:59;;;;;;;9.13;3.77;;;;;;;2.32;74.35;98546.02;1708854;83;20948;-47
2022/04/10 02:45:25;;;;;;;8.50;3.70;;;;;;;2.30;74.37;98544.77;1697887;83;21011;-47
2022/04/10 02:47:51;;;;;;;7.72;3.72;;;;;;;2.30;75.18;98550.80;1702674;84;21613;-44
2022/04/10 02:50:17;;;;;;;9.35;3.67;;;;;;;2.32;75.27;98553.80;1710399;83;21015;-48
2022/04/10 02:52:43;;;;;;;11.03;4.05;;;;;;;2.32;75.04;98552.05;1701153;83;20941;-46
2022/04/10 02:55:09;;;;;;;7.97;3.58;;;;;;;2.33;75.06;98555.05;1707902;83;20999;-45
2022/04/10 02:57:37;;;;;;;6.58;3.50;;;;;;;2.36;74.52;98552.33;1709100;83;20985;-46
2022/04/10 03:00:05;;;;;;;9.08;3.52;;;;;;;2.34;75.13;98555.43;1710355;83;20993;-44
2022/04/10 03:02:31;;;;;;;11.43;3.52;;;;;;;2.37;74.71;98560.52;1706587;83;21494;-45
2022/04/10 03:04:57;;;;;;;7.30;3.20;;;;;;;2.40;74.63;98562.16;1714944;80;20975;-46
2022/04/10 03:07:23;;;;;;;6.55;3.40;;;;;;;2.39;74.85;98553.99;1723056;81;21069;-45
2022/04/10 03:09:49;;;;;;;6.33;3.45;;;;;;;2.42;74.64;98562.95;1700449;81;20998;-47
2022/04/10 03:12:15;;;;;;;7.50;3.47;;;;;;;2.43;74.56;98559.47;1677824;84;20994;-49
2022/04/10 03:14:41;;;;;;;8.80;3.37;;;;;;;2.46;74.33;98555.02;1694828;82;21110;-38
2022/04/10 03:17:07;;;;;;;8.20;3.67;;;;;;;2.43;74.60;98558.17;1717162;81;21000;-37
2022/04/10 03:19:33;;;;;;;7.55;3.33;;;;;;;2.42;74.83;98564.25;1705058;84;21012;-38
2022/04/10 03:21:59;;;;;;;9.80;3.05;;;;;;;2.45;74.71;98560.26;1705958;84;20959;-38
2022/04/10 03:24:24;;;;;;;7.50;3.17;;;;;;;2.41;74.97;98561.27;1708439;83;21500;-36
2022/04/10 03:26:50;;;;;;;10.58;2.70;;;;;;;2.45;75.22;98556.36;1705688;83;21434;-38
2022/04/10 03:29:16;;;;;;;9.68;2.80;;;;;;;2.47;74.96;98567.11;1703187;84;20989;-37
2022/04/10 03:31:42;;;;;;;8.95;2.90;;;;;;;2.45;75.38;98572.78;1703162;84;20997;-37
2022/04/10 03:34:08;;;;;;;6.90;2.92;;;;;;;2.47;74.56;98572.73;1703200;83;20997;-37
2022/04/10 03:36:33;;;;;;;7.40;2.72;;;;;;;2.46;74.75;98575.78;1703157;84;21045;-38
2022/04/10 03:38:59;;;;;;;5.78;2.55;;;;;;;2.50;74.72;98584.31;1703090;84;20993;-39
2022/04/10 03:41:25;;;;;;;5.95;2.50;;;;;;;2.53;74.34;98586.81;1703237;84;21053;-36
2022/04/10 03:43:50;;;;;;;5.45;2.42;;;;;;;2.57;73.99;98595.34;1703170;84;21958;-37
2022/04/10 03:46:16;;;;;;;5.37;2.50;;;;;;;2.59;73.78;98593.54;1703290;84;21050;-37
2022/04/10 03:48:42;;;;;;;5.70;2.70;;;;;;;2.58;74.16;98596.56;1703163;84;21029;-39
2022/04/10 03:51:08;;;;;;;7.00;2.62;;;;;;;2.62;73.40;98607.69;1678648;84;20982;-38
2022/04/10 03:53:34;;;;;;;7.00;2.60;;;;;;;2.62;74.17;98611.59;1675133;84;21154;-39
2022/04/10 03:56:00;;;;;;;7.97;2.47;;;;;;;2.67;73.86;98612.28;1675077;85;21031;-37
2022/04/10 03:58:26;;;;;;;3.98;2.22;;;;;;;2.73;73.68;98613.82;1675079;84;21114;-37
2022/04/10 04:00:52;;;;;;;5.30;2.40;;;;;;;2.68;74.82;98617.42;1675047;86;21050;-37
2022/04/10 04:03:18;;;;;;;7.12;2.80;;;;;;;2.69;74.48;98610.05;1675161;86;21018;-37
2022/04/10 04:05:44;;;;;;;8.53;2.37;;;;;;;2.76;74.60;98628.00;1675194;85;21597;-37
2022/04/10 04:08:09;;;;;;;5.37;2.47;;;;;;;2.83;74.04;98634.69;1674999;86;20991;-40
2022/04/10 04:10:35;;;;;;;9.05;2.85;;;;;;;2.84;74.38;98638.99;1689439;84;20985;-37
2022/04/10 04:13:01;;;;;;;5.22;2.42;;;;;;;2.87;73.55;98642.76;1701918;84;20973;-37
2022/04/10 04:15:27;;;;;;;9.23;2.65;;;;;;;2.88;74.04;98647.91;1675209;86;20980;-37
2022/04/10 04:17:53;;;;;;;5.78;3.00;;;;;;;2.92;73.83;98649.95;1700484;83;21006;-35
2022/04/10 04:20:19;;;;;;;8.93;3.20;;;;;;;2.95;73.87;98649.84;1695309;84;21450;-35
2022/04/10 04:22:45;;;;;;;6.05;2.62;;;;;;;2.97;74.07;98655.84;1703222;83;20990;-36
2022/04/10 04:25:11;;;;;;;6.85;2.87;;;;;;;3.00;73.95;98654.44;1689187;83;20980;-38
2022/04/10 04:27:38;;;;;;;8.28;2.77;;;;;;;2.93;74.28;98670.27;1671947;82;21005;-35
2022/04/10 04:30:07;;;;;;;10.20;3.10;;;;;;;2.93;74.17;98671.14;1691310;83;21000;-35
2022/04/10 04:32:33;;;;;;;7.53;2.75;;;;;;;2.92;74.17;98676.38;1697310;84;20959;-36
2022/04/10 04:34:59;;;;;;;6.25;3.12;;;;;;;2.99;74.11;98686.95;1703131;84;21497;-37
2022/04/10 04:37:25;;;;;;;10.53;2.87;;;;;;;3.06;73.54;98690.59;1703119;84;20972;-37
2022/04/10 04:39:50;;;;;;;6.95;2.75;;;;;;;3.03;73.63;98688.08;1698182;83;20983;-37
2022/04/10 04:42:16;;;;;;;5.45;2.72;;;;;;;3.03;73.65;98697.17;1703102;84;20941;-36
2022/04/10 04:44:42;;;;;;;6.62;2.77;;;;;;;2.98;73.74;98696.47;1703140;84;21035;-37
2022/04/10 04:47:08;;;;;;;8.83;2.83;;;;;;;3.00;74.21;98707.69;1703100;83;21097;-36
2022/04/10 04:49:34;;;;;;;4.30;2.40;;;;;;;3.00;74.12;98694.70;1703046;84;21012;-35
2022/04/10 04:52:00;;;;;;;5.95;2.62;;;;;;;3.06;73.88;98700.14;1703113;84;21441;-35
2022/04/10 04:54:26;;;;;;;6.78;2.65;;;;;;;3.10;73.76;98702.18;1703174;84;21526;-36
2022/04/10 04:56:51;;;;;;;5.47;3.00;;;;;;;3.17;73.67;98715.36;1703303;83;20931;-36
2022/04/10 04:59:18;;;;;;;5.45;2.90;;;;;;;3.16;73.66;98712.34;1703149;84;21034;-36
2022/04/10 05:01:44;;;;;;;7.08;2.60;;;;;;;3.14;73.34;98715.45;1703193;84;20991;-35
2022/04/10 05:04:11;;;;;;;6.12;2.72;;;;;;;3.11;73.62;98720.75;1703417;83;21429;-35
2022/04/10 05:06:38;;;;;;;9.15;3.33;;;;;;;2.93;74.75;98718.31;1703146;84;20968;-37
2022/04/10 05:09:05;;;;;;;8.20;3.47;;;;;;;2.99;74.69;98725.46;1703201;84;20983;-35
2022/04/10 05:11:31;;;;;;;6.28;3.33;;;;;;;2.98;74.38;98732.84;1703224;84;21081;-36
2022/04/10 05:13:57;;;;;;;6.50;3.02;;;;;;;3.04;73.79;98739.61;1703064;84;21010;-35
2022/04/10 05:16:22;;;;;;;8.45;3.00;;;;;;;2.95;75.03;98735.98;1703081;84;20990;-37
2022/04/10 05:18:49;;;;;;;4.55;2.98;;;;;;;2.95;74.71;98738.16;1703119;84;20994;-36
2022/04/10 05:21:15;;;;;;;8.73;3.27;;;;;;;2.88;75.44;98740.55;1703387;83;21518;-35
2022/04/10 05:23:41;;;;;;;6.58;2.95;;;;;;;3.01;74.96;98742.30;1703048;83;20994;-36
2022/04/10 05:26:08;;;;;;;6.65;2.98;;;;;;;3.03;74.98;98740.49;1703123;84;21026;-36
2022/04/10 05:28:34;;;;;;;5.83;2.83;;;;;;;3.07;74.76;98744.25;1703147;84;20987;-37
2022/04/10 05:31:03;;;;;;;5.73;3.13;;;;;;;3.12;75.11;98742.78;1703447;83;21772;-38
2022/04/10 05:33:30;;;;;;;7.05;3.08;;;;;;;3.07;75.36;98749.45;1703082;83;21703;-36
2022/04/10 05:35:56;;;;;;;7.17;3.30;;;;;;;3.11;75.19;98755.39;1682868;84;21476;-36
2022/04/10 05:38:22;;;;;;;7.05;3.25;;;;;;;3.14;74.33;98753.97;1703143;83;20967;-37
2022/04/10 05:40:52;;;;;;;8.05;3.00;;;;;;;3.18;74.74;98752.11;1700527;84;20969;-36
2022/04/10 05:43:16;;;;;;;7.55;3.55;;;;;;;3.18;74.85;98759.91;1702700;84;21482;-37
2022/04/10 05:45:42;;;;;;;5.08;3.25;;;;;;;3.22;74.66;98761.49;1703161;84;21000;-37
2022/04/10 05:48:08;;;;;;;9.68;3.35;;;;;;;3.22;74.55;98757.17;1703118;84;21039;-37
2022/04/10 05:50:34;;;;;;;7.47;3.95;;;;;;;3.29;74.56;98758.25;1703204;84;20996;-37
2022/04/10 05:53:02;;;;;;;8.95;3.80;;;;;;;3.36;74.07;98764.47;1703107;84;20987;-37
2022/04/10 05:55:28;;;;;;;8.73;4.22;;;;;;;3.40;74.34;98769.12;1703125;84;20988;-37
2022/04/10 05:57:55;;;;;;;5.97;3.50;;;;;;;3.44;74.59;98768.97;1688356;84;21048;-36
2022/04/10 06:00:23;;;;;;;7.33;4.22;;;;;;;3.55;73.87;98772.96;1674989;85;20965;-37
2022/04/10 06:02:50;;;;;;;6.72;4.35;;;;;;;3.42;74.75;98766.88;1674993;86;20977;-36
2022/04/10 06:05:18;;;;;;;7.00;3.73;;;;;;;3.59;74.24;98768.05;1675228;86;20996;-37
2022/04/10 06:07:44;;;;;;;9.05;3.72;;;;;;;3.72;73.76;98771.89;1675033;86;21489;-37
2022/04/10 06:10:11;;;;;;;7.50;3.60;;;;;;;3.60;74.55;98772.32;1682988;84;20956;-38
2022/04/10 06:12:36;;;;;;;9.70;3.50;;;;;;;3.65;74.20;98766.52;1694935;84;20984;-36
2022/04/10 06:15:03;;;;;;;7.22;3.37;;;;;;;3.68;74.19;98765.57;1693455;84;21047;-37
2022/04/10 06:17:30;;;;;;;5.85;3.22;;;;;;;3.58;74.26;98770.23;1699248;84;20984;-36
2022/04/10 06:19:57;;;;;;;10.00;4.07;;;;;;;3.64;73.68;98782.58;1675150;86;21046;-37
2022/04/10 06:22:23;;;;;;;8.98;3.92;;;;;;;3.69;72.89;98765.49;1684938;84;21455;-36
2022/04/10 06:24:53;;;;;;;9.40;3.40;;;;;;;3.68;72.72;98775.97;1728261;82;20981;-37
2022/04/10 06:27:20;;;;;;;7.85;3.98;;;;;;;3.69;72.27;98782.39;1723881;81;20975;-36
2022/04/10 06:29:47;;;;;;;9.93;3.27;;;;;;;3.64;72.13;98777.84;1706484;82;20994;-36
2022/04/10 06:32:14;;;;;;;9.97;4.13;;;;;;;3.58;72.13;98778.03;1704570;83;21037;-38
2022/04/10 06:34:40;;;;;;;12.00;3.95;;;;;;;3.68;71.87;98784.62;1686205;83;20997;-35
2022/04/10 06:37:07;;;;;;;7.33;3.67;;;;;;;3.76;71.61;98783.88;1735387;82;21086;-36
2022/04/10 06:39:34;;;;;;;7.85;4.00;;;;;;;3.88;71.46;98787.80;1699341;84;21010;-38
2022/04/10 06:42:00;;;;;;;8.28;3.33;;;;;;;3.89;71.10;98788.64;1707293;82;21618;-36
2022/04/10 06:44:26;;;;;;;10.30;3.47;;;;;;;3.96;70.90;98787.06;1694665;84;21521;-35
2022/04/10 06:46:52;;;;;;;7.67;4.03;;;;;;;3.98;70.62;98790.48;1688633;84;21020;-37
2022/04/10 06:49:19;;;;;;;16.23;3.98;;;;;;;4.06;70.32;98794.52;1688964;83;20987;-37
2022/04/10 06:51:45;;;;;;;8.75;3.30;;;;;;;4.08;70.03;98803.15;1709533;83;21017;-38
2022/04/10 06:54:10;;;;;;;7.15;3.40;;;;;;;4.13;69.29;98797.30;1691978;83;21663;-38
2022/04/10 06:56:36;;;;;;;10.78;3.85;;;;;;;4.11;69.63;98805.19;1681155;83;21176;-37
2022/04/10 06:59:02;;;;;;;11.22;4.20;;;;;;;3.99;69.63;98801.27;1689232;83;21174;-38
2022/04/10 07:01:28;;;;;;;11.43;4.72;;;;;;;4.01;69.39;98805.95;1689357;83;21040;-38
2022/04/10 07:03:54;;;;;;;14.95;5.30;;;;;;;3.85;69.72;98803.05;1703439;83;21035;-38
2022/04/10 07:06:20;;;;;;;9.90;4.67;;;;;;;3.93;69.25;98800.20;1700753;83;21044;-37
2022/04/10 07:08:46;;;;;;;9.30;4.55;;;;;;;3.93;68.91;98807.13;1688775;83;20973;-38
2022/04/10 07:11:12;;;;;;;9.85;4.42;;;;;;;3.76;69.68;98805.98;1687111;82;21015;-38
2022/04/10 07:13:37;;;;;;;13.53;6.47;;;;;;;3.81;69.87;98805.83;1683747;83;21482;-39
2022/04/10 07:16:04;;;;;;;12.70;4.65;;;;;;;3.73;69.68;98810.02;1688355;83;21481;-37
2022/04/10 07:18:30;;;;;;;15.20;4.97;;;;;;;3.77;69.58;98803.80;1676695;82;21481;-41
2022/04/10 07:20:55;;;;;;;12.80;4.70;;;;;;;3.76;69.88;98799.94;1682409;83;20992;-38
2022/04/10 07:23:43;;;;;;;12.33;4.78;;;;;;;3.77;69.95;98808.99;1675498;83;21116;-37
2022/04/10 07:26:14;;;;;;;11.63;5.42;;;;;;;3.71;69.95;98809.22;1691816;83;21504;-39
2022/04/10 07:28:41;;;;;;;13.50;5.78;;;;;;;3.74;69.90;98807.79;1687824;84;21501;-37
2022/04/10 07:31:09;;;;;;;8.60;5.30;;;;;;;3.76;70.06;98820.75;1681259;83;21024;-38
2022/04/10 07:33:37;;;;;;;12.53;7.00;;;;;;;3.76;70.06;98820.75;1679674;83;22013;-39
2022/04/10 07:36:03;;;;;;;18.75;7.80;;;;;;;3.74;70.01;98805.19;1696120;83;21007;-38
2022/04/10 07:38:29;;;;;;;13.47;6.70;;;;;;;3.74;70.01;98805.19;1668351;83;21514;-37
2022/04/10 07:40:56;;;;;;;17.90;6.33;;;;;;;3.79;70.23;98807.64;1676888;84;21064;-38
2022/04/10 07:43:23;;;;;;;17.55;6.78;;;;;;;3.80;70.23;98815.40;1683270;83;20983;-36
2022/04/10 07:48:33;;;;;;;19.00;7.67;;;;;;;3.83;69.76;98824.83;1696091;83;20970;-36
2022/04/10 07:51:00;;;;;;;30.92;13.48;;;;;;;3.68;70.26;98834.48;1690660;84;21087;-40
2022/04/10 07:53:29;;;;;;;16.93;7.53;;;;;;;3.72;70.48;98839.97;1693808;83;20986;-39
2022/04/10 07:55:56;;;;;;;24.52;10.15;;;;;;;3.75;70.38;98835.52;1706637;81;20992;-43
2022/04/10 07:58:22;;;;;;;9.93;6.33;;;;;;;3.85;70.34;98838.16;1705391;83;21504;-39
2022/04/10 08:00:48;;;;;;;23.27;9.57;;;;;;;3.83;70.09;98837.38;1693295;84;21003;-38
2022/04/10 08:03:14;;;;;;;29.25;14.33;;;;;;;3.89;69.80;98840.67;1702558;82;20998;-39
2022/04/10 08:05:40;;;;;;;63.15;33.35;;;;;;;3.84;69.88;98838.25;1702708;83;20971;-39
2022/04/10 08:08:06;;;;;;;30.37;17.92;;;;;;;3.87;69.99;98843.78;1704838;84;20965;-38
2022/04/10 08:10:32;;;;;;;16.65;8.28;;;;;;;3.95;69.50;98854.32;1702109;82;21461;-38
2022/04/10 08:12:58;;;;;;;16.52;7.95;;;;;;;4.00;69.01;98847.64;1684858;84;21162;-36
2022/04/10 08:15:24;;;;;;;14.87;6.78;;;;;;;4.05;68.90;98848.33;1697986;84;21080;-38
2022/04/10 08:17:50;;;;;;;13.22;7.03;;;;;;;4.08;68.31;98857.80;1693016;84;21000;-37
2022/04/10 08:20:16;;;;;;;66.37;28.98;;;;;;;4.18;67.39;98870.85;1696396;84;20971;-38
2022/04/10 08:22:42;;;;;;;29.92;14.83;;;;;;;4.16;67.08;98867.45;1698559;82;21031;-39
2022/04/10 08:25:10;;;;;;;34.30;15.58;;;;;;;4.23;66.84;98873.69;1669603;84;21027;-36
2022/04/10 08:27:37;;;;;;;16.50;8.33;;;;;;;4.19;66.99;98868.66;1690760;83;21027;-38
2022/04/10 08:30:08;;;;;;;23.92;11.85;;;;;;;4.30;66.82;98878.69;1695933;83;21413;-36
2022/04/10 08:32:42;;;;;;;20.92;12.85;;;;;;;4.22;66.49;98874.61;1686974;84;21059;-38
2022/04/10 08:35:10;;;;;;;21.27;9.98;;;;;;;4.30;66.70;98869.58;1677551;84;21458;-38
2022/04/10 08:37:36;;;;;;;26.42;9.93;;;;;;;4.25;66.51;98887.95;1693145;84;21502;-37
2022/04/10 08:40:05;;;;;;;13.98;6.67;;;;;;;4.20;66.65;98881.63;1686466;84;20969;-39
2022/04/10 08:42:31;;;;;;;17.30;7.03;;;;;;;4.23;66.16;98881.49;1700838;83;22027;-38
2022/04/10 08:44:58;;;;;;;15.05;7.12;;;;;;;4.33;65.94;98880.73;1704385;83;21479;-38
2022/04/10 08:47:25;;;;;;;25.60;9.88;;;;;;;4.46;65.67;98886.33;1682766;84;21187;-37
2022/04/10 08:49:53;;;;;;;24.67;9.87;;;;;;;4.64;65.57;98887.84;1644756;84;21018;-38
2022/04/10 08:52:20;;;;;;;13.78;6.55;;;;;;;4.59;65.08;98884.96;1697384;84;21136;-38
2022/04/10 08:54:48;;;;;;;23.98;6.80;;;;;;;4.58;64.99;98889.79;1704337;84;20973;-37
2022/04/10 08:57:15;;;;;;;15.63;6.12;;;;;;;4.53;64.86;98910.37;1704284;84;20992;-37
2022/04/10 08:59:42;;;;;;;15.20;5.75;;;;;;;4.44;64.74;98908.98;1701793;84;20996;-38
2022/04/10 09:02:10;;;;;;;10.40;5.65;;;;;;;4.52;64.44;98912.13;1703786;83;21870;-37
2022/04/10 09:04:37;;;;;;;11.60;4.00;;;;;;;4.58;64.46;98902.81;1703180;84;21141;-40
2022/04/10 09:07:10;;;;;;;8.85;3.92;;;;;;;4.58;64.08;98912.36;1704073;84;21532;-37
2022/04/10 09:09:42;;;;;;;9.83;4.37;;;;;;;4.54;63.84;98906.41;1708135;83;21477;-38
2022/04/10 09:12:09;;;;;;;10.35;4.05;;;;;;;4.54;64.13;98918.13;1696233;83;21003;-37
2022/04/10 09:14:39;;;;;;;11.20;4.23;;;;;;;4.51;64.53;98914.36;1708227;83;20979;-38
2022/04/10 09:17:15;;;;;;;10.05;4.62;;;;;;;4.53;63.90;98920.35;1711447;83;20976;-37
2022/04/10 09:19:47;;;;;;;15.05;4.95;;;;;;;4.57;64.21;98918.48;1718983;81;21045;-39
2022/04/10 09:22:35;;;;;;;9.80;4.37;;;;;;;4.74;64.43;98902.22;1718263;81;21024;-37
2022/04/10 09:25:12;;;;;;;11.18;4.45;;;;;;;4.99;63.66;98913.41;1728678;81;20998;-40
2022/04/10 09:27:41;;;;;;;10.75;5.08;;;;;;;5.10;62.65;98907.78;1704685;82;21015;-39
2022/04/10 09:30:10;;;;;;;8.88;4.20;;;;;;;5.17;62.52;98909.70;1711834;81;20975;-37
2022/04/10 09:32:39;;;;;;;15.45;4.78;;;;;;;5.22;62.64;98910.37;1723106;81;21018;-40
2022/04/10 09:35:06;;;;;;;11.48;5.08;;;;;;;5.27;62.71;98911.02;1691515;84;21455;-38
2022/04/10 09:37:56;;;;;;;8.40;4.45;;;;;;;5.20;61.13;98910.86;1685328;83;21071;-37
2022/04/10 09:40:29;;;;;;;16.35;5.12;;;;;;;5.12;61.53;98905.95;1693261;84;21055;-38
2022/04/10 09:43:10;;;;;;;16.23;5.20;;;;;;;5.15;61.33;98906.31;1694697;84;21041;-36
2022/04/10 09:45:44;;;;;;;14.60;4.80;;;;;;;5.57;61.25;98905.48;1693441;83;21093;-38
2022/04/10 09:48:29;;;;;;;13.18;5.40;;;;;;;5.77;60.50;98896.84;1674113;84;21507;-38
2022/04/10 09:51:03;;;;;;;9.45;4.15;;;;;;;6.10;60.35;98900.25;1688949;83;21501;-38
2022/04/10 09:53:32;;;;;;;8.73;3.70;;;;;;;6.07;57.84;98904.30;1682758;83;21041;-39
2022/04/10 09:56:04;;;;;;;7.53;3.20;;;;;;;6.19;55.74;98891.19;1676156;83;21036;-38
2022/04/10 09:58:32;;;;;;;13.88;4.80;;;;;;;6.21;57.01;98901.94;1675319;84;21012;-38
2022/04/10 10:01:00;;;;;;;18.77;4.83;;;;;;;6.07;57.22;98898.61;1675112;83;21032;-40
2022/04/10 10:03:36;;;;;;;11.18;3.85;;;;;;;6.03;55.87;98901.44;1724132;82;21495;-37
2022/04/10 10:06:01;;;;;;;10.90;4.45;;;;;;;6.14;56.91;98907.88;1722149;82;22039;-38
2022/04/10 10:08:28;;;;;;;11.65;4.42;;;;;;;6.03;57.25;98906.66;1693382;84;21497;-37
2022/04/10 10:10:56;;;;;;;15.65;4.97;;;;;;;5.90;57.33;98907.61;1706695;84;21033;-37
2022/04/10 10:13:26;;;;;;;15.45;6.12;;;;;;;5.86;57.50;98912.56;1705020;84;21008;-37
2022/04/10 10:15:51;;;;;;;19.25;6.83;;;;;;;5.88;57.88;98927.70;1690856;83;20992;-37
2022/04/10 10:18:18;;;;;;;13.20;6.03;;;;;;;5.82;57.66;98917.06;1692122;83;21690;-38
2022/04/10 10:20:44;;;;;;;10.18;4.83;;;;;;;5.84;57.93;98916.97;1720512;82;21013;-36
2022/04/10 10:23:13;;;;;;;12.33;4.92;;;;;;;6.05;57.34;98919.18;1708657;83;21152;-37
2022/04/10 10:26:16;;;;;;;10.43;5.60;;;;;;;6.22;56.83;98918.01;1703042;84;21000;-38
2022/04/10 10:28:55;;;;;;;10.53;4.22;;;;;;;6.27;55.26;98912.56;1702709;84;20980;-38
2022/04/10 10:31:38;;;;;;;7.75;3.02;;;;;;;6.26;55.04;98922.64;1692269;84;20976;-37
2022/04/10 10:34:09;;;;;;;9.88;3.50;;;;;;;6.13;53.80;98923.16;1674790;85;21008;-38
2022/04/10 10:36:36;;;;;;;10.10;3.60;;;;;;;6.07;54.24;98923.41;1674879;86;21032;-38
2022/04/10 10:39:05;;;;;;;10.55;3.30;;;;;;;6.20;55.08;98913.75;1686028;84;20965;-37
2022/04/10 10:41:34;;;;;;;10.23;3.47;;;;;;;6.29;55.22;98912.04;1692510;84;21615;-38
2022/04/10 10:44:29;;;;;;;9.55;3.45;;;;;;;6.34;55.18;98914.00;1687431;84;21002;-37
2022/04/10 10:46:58;;;;;;;8.70;4.30;;;;;;;6.27;54.49;98923.85;1675066;84;21295;-40
2022/04/10 10:49:27;;;;;;;8.60;3.15;;;;;;;6.33;54.45;98920.99;1674935;86;21051;-37
2022/04/10 10:51:55;;;;;;;12.98;4.35;;;;;;;6.36;54.06;98917.39;1674816;86;21091;-37
2022/04/10 10:54:37;;;;;;;14.43;4.47;;;;;;;6.48;54.79;98914.23;1674828;86;20977;-37
2022/04/10 10:57:27;;;;;;;9.70;3.27;;;;;;;6.59;54.52;98923.37;1674841;84;21010;-38
2022/04/10 11:00:16;;;;;;;8.65;4.12;;;;;;;6.52;53.13;98918.40;1674939;84;21533;-39
2022/04/10 11:02:52;;;;;;;9.75;3.75;;;;;;;6.40;53.96;98934.61;1684553;84;21034;-38
2022/04/10 11:05:36;;;;;;;8.83;4.37;;;;;;;6.31;53.62;98923.27;1702669;83;21010;-39
2022/04/10 11:08:09;;;;;;;9.70;4.60;;;;;;;6.19;53.70;98927.73;1703118;84;21005;-39
2022/04/10 11:10:54;;;;;;;9.18;3.77;;;;;;;6.35;54.52;98933.98;1703383;84;21776;-38
2022/04/10 11:13:20;;;;;;;10.63;4.17;;;;;;;6.58;53.93;98929.03;1667734;84;20978;-40
2022/04/10 11:15:52;;;;;;;8.95;4.10;;;;;;;7.00;53.28;98943.67;1703373;83;21050;-39
2022/04/10 11:18:31;;;;;;;13.88;6.45;;;;;;;6.95;52.54;98930.42;1703325;84;21483;-40
2022/04/10 11:21:13;;;;;;;10.50;6.35;;;;;;;6.93;53.26;98935.75;1703300;83;21472;-38
2022/04/10 11:23:41;;;;;;;21.70;7.50;;;;;;;6.80;52.96;98931.98;1703265;84;21086;-37
2022/04/10 11:26:16;;;;;;;12.07;6.33;;;;;;;6.73;53.36;98941.42;1703320;83;21005;-38
2022/04/10 11:29:11;;;;;;;11.88;5.35;;;;;;;6.66;53.07;98924.33;1703275;84;21036;-38
2022/04/10 11:31:48;;;;;;;15.98;4.47;;;;;;;6.68;53.21;98934.24;1703331;83;21005;-38
2022/04/10 11:34:24;;;;;;;18.07;5.45;;;;;;;6.73;53.28;98925.74;1703441;84;21052;-38
2022/04/10 11:36:53;;;;;;;13.43;4.35;;;;;;;6.71;52.80;98931.94;1703205;83;21013;-40
2022/04/10 11:39:32;;;;;;;9.23;3.65;;;;;;;6.63;52.93;98932.29;1703283;84;20997;-37
2022/04/10 11:42:02;;;;;;;11.25;3.90;;;;;;;6.59;52.61;98936.44;1703324;84;21018;-37
2022/04/10 11:44:29;;;;;;;15.75;5.47;;;;;;;6.41;52.77;98931.56;1703270;83;20997;-38
2022/04/10 11:46:57;;;;;;;10.58;4.78;;;;;;;6.40;53.16;98946.36;1703432;84;21013;-38